Terminal Aerodrome Forecast
Issued by NWS

Current Version | Previous Version | Text Only | Print | Product List | Glossary On
Versions: 1 2 3 4 5 6 7 8 9 10 11 12 13 14 15 16 17 18 19 20 21 22 23 24 25 26 27 28
373
FTUS43 KDMX 110539
TAFOTM
TAF
KOTM 110539Z 1106/1206 14009KT P6SM OVC050
     FM111200 16011KT P6SM VCSH SCT007 OVC015
     FM111500 20009KT P6SM OVC008
     FM112100 27010KT P6SM OVC010
     FM120100 31013G21KT P6SM BKN035=

USA.gov is the U.S. government's official web portal to all federal, state and local government web resources and services.